Time;durP1;ratioP1;P1;durP2;ratioP2;P2;SDS_P1;SDS_P2;PMS_P1;PMS_P2;Temp;Humidity;BMP_temperature;BMP_pressure;BME280_temperature;BME280_humidity;BME280_pressure;Samples;Min_cycle;Max_cycle;Signal;HPM_P1;HPM_P2
2023/01/27 00:00:13;;;;;;;50.17;21.80;;;2.50;99.90;;;;;;5053479;28;20788;-64
2023/01/27 00:02:40;;;;;;;56.25;21.60;;;2.50;99.90;;;;;;5053229;28;20417;-64
2023/01/27 00:05:08;;;;;;;55.67;21.85;;;2.50;99.90;;;;;;5052872;28;20416;-64
2023/01/27 00:07:35;;;;;;;61.50;21.93;;;2.60;99.90;;;;;;5052280;28;20510;-64
2023/01/27 00:10:02;;;;;;;58.70;21.80;;;2.60;99.90;;;;;;5052960;28;20430;-65
2023/01/27 00:15:15;;;;;;;52.72;20.90;;;2.60;99.90;;;;;;5052531;28;20428;-64
2023/01/27 00:17:42;;;;;;;54.58;21.23;;;2.60;99.90;;;;;;5053000;28;20420;-63
2023/01/27 00:20:10;;;;;;;51.92;20.70;;;2.60;99.90;;;;;;5052863;28;20413;-65
2023/01/27 00:25:21;;;;;;;47.20;21.33;;;2.70;99.90;;;;;;5052968;28;20388;-64
2023/01/27 00:27:48;;;;;;;47.80;20.48;;;2.60;99.90;;;;;;5056871;28;20412;-63
2023/01/27 00:30:17;;;;;;;48.87;20.33;;;2.70;99.90;;;;;;5057117;28;20410;-64
2023/01/27 00:35:28;;;;;;;52.27;21.90;;;2.70;99.90;;;;;;5065446;28;20492;-65
2023/01/27 00:37:55;;;;;;;49.50;20.70;;;2.70;99.90;;;;;;5065026;28;20413;-64
2023/01/27 00:40:22;;;;;;;48.83;21.23;;;2.70;99.90;;;;;;5063884;28;20476;-64
2023/01/27 00:42:49;;;;;;;49.20;20.90;;;2.70;99.90;;;;;;5064218;28;20503;-64
2023/01/27 00:48:01;;;;;;;43.38;20.05;;;2.80;99.90;;;;;;5063077;28;20432;-65
2023/01/27 00:50:28;;;;;;;44.72;19.80;;;2.80;99.90;;;;;;5062808;28;20419;-64
2023/01/27 00:52:57;;;;;;;41.42;18.35;;;2.80;99.90;;;;;;5062469;28;20413;-64
2023/01/27 00:55:24;;;;;;;43.45;18.60;;;2.80;99.90;;;;;;5062285;28;20433;-65
2023/01/27 00:57:51;;;;;;;38.67;18.15;;;2.80;99.90;;;;;;5062000;28;20425;-64
2023/01/27 01:00:19;;;;;;;35.70;17.23;;;2.80;99.90;;;;;;5060907;28;20413;-64
2023/01/27 01:02:46;;;;;;;35.88;18.17;;;2.80;99.90;;;;;;5059809;28;20777;-65
2023/01/27 01:05:13;;;;;;;38.70;18.50;;;2.90;99.90;;;;;;5058403;28;20424;-64
2023/01/27 01:07:40;;;;;;;35.30;16.98;;;2.90;99.90;;;;;;5056635;28;20413;-63
2023/01/27 01:10:08;;;;;;;35.88;19.27;;;2.90;99.90;;;;;;5061030;28;20417;-65
2023/01/27 01:12:34;;;;;;;33.95;16.77;;;2.90;99.90;;;;;;5060185;28;20808;-64
2023/01/27 01:15:01;;;;;;;38.58;17.20;;;2.90;99.90;;;;;;5061232;28;20413;-65
2023/01/27 01:17:29;;;;;;;33.40;17.02;;;3.00;99.90;;;;;;5062690;28;20464;-64
2023/01/27 01:19:56;;;;;;;33.38;16.33;;;3.00;99.90;;;;;;5062167;28;20413;-63
2023/01/27 01:22:23;;;;;;;33.07;16.27;;;3.00;99.90;;;;;;5062992;28;20517;-64
2023/01/27 01:24:50;;;;;;;30.85;16.00;;;3.00;99.90;;;;;;5061484;28;20409;-64
2023/01/27 01:27:16;;;;;;;29.90;15.55;;;3.00;99.90;;;;;;5058558;28;20792;-63
2023/01/27 01:29:43;;;;;;;32.60;15.63;;;3.00;99.90;;;;;;5057433;28;20421;-64
2023/01/27 01:32:10;;;;;;;34.03;15.70;;;3.00;99.90;;;;;;5059016;28;20758;-63
2023/01/27 01:34:38;;;;;;;33.10;16.52;;;3.00;99.90;;;;;;5056688;28;20415;-64
2023/01/27 01:37:05;;;;;;;32.75;15.25;;;3.00;99.90;;;;;;5055296;28;20973;-64
2023/01/27 01:39:32;;;;;;;31.08;15.07;;;3.00;99.90;;;;;;5056296;28;20417;-64
2023/01/27 01:41:59;;;;;;;32.53;15.35;;;3.10;99.90;;;;;;5057683;28;20428;-64
2023/01/27 01:44:27;;;;;;;28.67;15.13;;;3.10;99.90;;;;;;5057798;28;20432;-64
2023/01/27 01:46:54;;;;;;;33.50;16.13;;;3.10;99.90;;;;;;5056215;28;20419;-63
2023/01/27 01:49:26;;;;;;;30.33;15.02;;;3.10;99.90;;;;;;5056245;28;20421;-64
2023/01/27 01:51:59;;;;;;;29.95;14.60;;;3.10;99.90;;;;;;5055762;28;20447;-64
2023/01/27 01:54:29;;;;;;;35.30;17.00;;;3.10;99.90;;;;;;5056377;28;20410;-64
2023/01/27 01:57:00;;;;;;;34.20;15.98;;;3.00;99.90;;;;;;5055115;28;20436;-63
2023/01/27 01:59:31;;;;;;;33.50;16.35;;;3.00;99.90;;;;;;5054781;28;20776;-64
2023/01/27 02:02:02;;;;;;;31.75;16.13;;;3.00;99.90;;;;;;5054644;28;20424;-64
2023/01/27 02:04:34;;;;;;;29.67;15.23;;;3.00;99.90;;;;;;5055514;28;20742;-63
2023/01/27 02:07:09;;;;;;;32.83;15.43;;;3.00;99.90;;;;;;5054676;28;20464;-62
2023/01/27 02:09:38;;;;;;;32.42;15.98;;;3.00;99.90;;;;;;5054682;28;20435;-64
2023/01/27 02:12:06;;;;;;;29.20;14.68;;;3.00;99.90;;;;;;5054577;28;20909;-63
2023/01/27 02:14:33;;;;;;;29.63;13.93;;;3.00;99.90;;;;;;5054158;28;20400;-64
2023/01/27 02:17:00;;;;;;;29.67;14.38;;;3.00;99.90;;;;;;5055501;28;20433;-63
2023/01/27 02:19:36;;;;;;;29.38;15.02;;;3.00;99.90;;;;;;5057930;28;20413;-64
2023/01/27 02:22:09;;;;;;;31.83;15.20;;;3.10;99.90;;;;;;5056819;28;20413;-64
2023/01/27 02:24:44;;;;;;;27.42;15.23;;;3.10;99.90;;;;;;5055634;28;20484;-64
2023/01/27 02:27:13;;;;;;;27.42;14.52;;;3.10;99.90;;;;;;5055074;28;20428;-64
2023/01/27 02:29:40;;;;;;;26.83;13.93;;;3.10;99.90;;;;;;5058740;28;20824;-64
2023/01/27 02:32:07;;;;;;;29.13;13.82;;;3.10;99.90;;;;;;5057230;28;20425;-64
2023/01/27 02:34:37;;;;;;;26.10;14.68;;;3.10;99.90;;;;;;5056993;28;20409;-64
2023/01/27 02:37:08;;;;;;;25.67;13.48;;;3.10;99.90;;;;;;5056022;28;20496;-64
2023/01/27 02:39:39;;;;;;;27.23;13.73;;;3.10;99.90;;;;;;5056312;28;20417;-64
2023/01/27 02:42:10;;;;;;;27.70;13.50;;;3.10;99.90;;;;;;5055598;28;20475;-64
2023/01/27 02:44:38;;;;;;;24.23;13.63;;;3.10;99.90;;;;;;5058995;28;20422;-64
2023/01/27 02:47:05;;;;;;;23.20;13.65;;;3.10;99.90;;;;;;5058723;28;20440;-64
2023/01/27 02:49:32;;;;;;;25.05;13.95;;;3.10;99.90;;;;;;5057819;28;20409;-64
2023/01/27 02:51:59;;;;;;;29.75;13.68;;;3.10;99.90;;;;;;5058888;28;20423;-64
2023/01/27 02:54:29;;;;;;;24.83;13.52;;;3.10;99.90;;;;;;5059572;28;20420;-65
2023/01/27 02:56:55;;;;;;;27.02;13.43;;;3.10;99.90;;;;;;5060126;28;20481;-64
2023/01/27 02:59:22;;;;;;;25.83;13.50;;;3.10;99.90;;;;;;5054347;28;20510;-64
2023/01/27 03:01:50;;;;;;;27.80;13.63;;;3.10;99.90;;;;;;5054400;28;20889;-64
2023/01/27 03:04:17;;;;;;;25.85;12.98;;;3.10;99.90;;;;;;5055153;28;20483;-64
2023/01/27 03:06:44;;;;;;;23.77;12.73;;;3.20;99.90;;;;;;5055108;28;20405;-63
2023/01/27 03:09:10;;;;;;;27.30;12.82;;;3.20;99.90;;;;;;5054848;28;20419;-64
2023/01/27 03:19:52;;;;;;;25.63;13.25;;;3.20;99.90;;;;;;5011929;28;20428;-63
2023/01/27 03:22:19;;;;;;;25.33;13.32;;;3.20;99.90;;;;;;5052750;28;20734;-64
2023/01/27 03:24:46;;;;;;;21.40;12.63;;;3.20;99.90;;;;;;5053505;28;20443;-64
2023/01/27 03:27:12;;;;;;;22.87;12.63;;;3.20;99.90;;;;;;5052566;28;20880;-63
2023/01/27 03:29:54;;;;;;;19.65;11.45;;;3.30;99.90;;;;;;5058759;28;20416;-64
2023/01/27 03:32:23;;;;;;;18.90;11.45;;;3.30;99.90;;;;;;5068030;28;20420;-64
2023/01/27 03:34:49;;;;;;;21.10;11.48;;;3.30;99.90;;;;;;5067645;28;20419;-64
2023/01/27 03:48:17;;;;;;;19.45;10.98;;;3.30;99.90;;;;;;5052646;28;20481;-64
2023/01/27 03:50:44;;;;;;;18.92;10.57;;;3.40;99.90;;;;;;5053140;28;20896;-65
2023/01/27 03:53:11;;;;;;;18.95;11.23;;;3.40;99.90;;;;;;5052841;28;20414;-64
2023/01/27 03:55:38;;;;;;;17.00;10.90;;;3.40;99.90;;;;;;5052254;28;20417;-63
2023/01/27 03:58:18;;;;;;;20.52;10.70;;;3.40;99.90;;;;;;5052135;28;20425;-64
2023/01/27 04:00:46;;;;;;;17.20;10.45;;;3.40;99.90;;;;;;5052655;28;20413;-63
2023/01/27 04:14:00;;;;;;;17.20;9.60;;;3.40;99.90;;;;;;5062133;28;20409;-64
2023/01/27 04:16:29;;;;;;;17.23;11.18;;;3.30;99.90;;;;;;5109858;28;20413;-64
2023/01/27 04:18:55;;;;;;;17.17;10.80;;;3.40;99.90;;;;;;5110104;28;20419;-64
2023/01/27 04:21:24;;;;;;;17.40;10.18;;;3.40;99.90;;;;;;5110040;28;20420;-65
2023/01/27 04:23:50;;;;;;;18.53;10.47;;;3.40;99.90;;;;;;5131278;22;20506;-68
2023/01/27 04:26:19;;;;;;;17.27;11.10;;;3.40;99.90;;;;;;5069645;28;20416;-68
2023/01/27 04:28:47;;;;;;;17.70;10.67;;;3.40;99.90;;;;;;5069015;28;20499;-68
2023/01/27 04:31:14;;;;;;;20.08;11.20;;;3.50;99.90;;;;;;5069075;28;20455;-67
2023/01/27 04:33:41;;;;;;;16.80;10.15;;;3.50;99.90;;;;;;5069020;28;20416;-68
2023/01/27 04:36:08;;;;;;;18.02;9.85;;;3.40;99.90;;;;;;5068675;28;20914;-68
2023/01/27 04:38:35;;;;;;;15.02;9.40;;;3.50;99.90;;;;;;5068484;28;20762;-68
2023/01/27 04:41:01;;;;;;;17.57;10.20;;;3.40;99.90;;;;;;5068657;28;20412;-68
2023/01/27 04:43:29;;;;;;;16.30;9.45;;;3.50;99.90;;;;;;5068922;28;20420;-67
2023/01/27 04:45:56;;;;;;;13.80;9.00;;;3.50;99.90;;;;;;5068680;28;20416;-67
2023/01/27 04:48:23;;;;;;;14.77;9.95;;;3.50;99.90;;;;;;5068635;28;20416;-67
2023/01/27 04:50:50;;;;;;;13.32;8.60;;;3.60;99.90;;;;;;5068633;28;20436;-68
2023/01/27 04:53:16;;;;;;;15.20;8.90;;;3.60;99.90;;;;;;5068559;28;20423;-68
2023/01/27 04:55:47;;;;;;;14.25;8.70;;;3.60;99.90;;;;;;5068276;28;20938;-68
2023/01/27 04:58:15;;;;;;;14.73;9.23;;;3.60;99.90;;;;;;5068772;28;20413;-67
2023/01/27 05:00:44;;;;;;;12.45;8.40;;;3.60;99.90;;;;;;5068176;28;20408;-69
2023/01/27 05:03:11;;;;;;;12.07;8.77;;;3.60;99.90;;;;;;5068261;28;20405;-68
2023/01/27 05:05:38;;;;;;;12.80;8.50;;;3.60;99.90;;;;;;5068360;28;20415;-68
2023/01/27 05:08:06;;;;;;;14.23;8.50;;;3.60;99.90;;;;;;5069000;28;20906;-69
2023/01/27 05:10:33;;;;;;;12.20;8.10;;;3.70;99.90;;;;;;5068560;28;20507;-68
2023/01/27 05:13:00;;;;;;;11.20;7.97;;;3.70;99.90;;;;;;5069095;28;20438;-67
2023/01/27 05:15:27;;;;;;;12.23;7.90;;;3.70;99.90;;;;;;5069076;28;20872;-68
2023/01/27 05:17:56;;;;;;;10.70;7.35;;;3.70;99.90;;;;;;5068687;28;20831;-68
2023/01/27 05:20:22;;;;;;;10.45;7.43;;;3.70;99.90;;;;;;5067519;28;20833;-68
2023/01/27 05:23:33;;;;;;;10.77;7.43;;;3.70;99.90;;;;;;5056796;28;20640;-67
2023/01/27 05:25:40;;;;;;;11.23;7.50;;;3.70;99.90;;;;;;5055787;28;20416;-68
2023/01/27 05:28:07;;;;;;;10.80;7.13;;;3.70;99.90;;;;;;5056431;28;20499;-69
2023/01/27 05:30:34;;;;;;;10.57;7.60;;;3.70;99.90;;;;;;5055820;28;20433;-68
2023/01/27 05:33:02;;;;;;;9.88;7.28;;;3.70;99.90;;;;;;5054735;28;20411;-68
2023/01/27 05:35:32;;;;;;;10.48;7.50;;;3.70;99.90;;;;;;5054442;28;20496;-68
2023/01/27 05:37:58;;;;;;;11.07;7.70;;;3.70;99.90;;;;;;5055053;28;20901;-68
2023/01/27 05:40:25;;;;;;;9.80;7.35;;;3.70;99.90;;;;;;5055191;28;20459;-68
2023/01/27 05:42:52;;;;;;;9.93;6.78;;;3.70;99.90;;;;;;5054570;28;20922;-68
2023/01/27 05:45:19;;;;;;;13.00;7.60;;;3.70;99.90;;;;;;5054457;28;20503;-69
2023/01/27 05:47:49;;;;;;;10.57;7.57;;;3.70;99.90;;;;;;5054701;28;20496;-68
2023/01/27 05:50:17;;;;;;;11.85;7.45;;;3.70;99.90;;;;;;5054696;28;20474;-68
2023/01/27 05:52:44;;;;;;;9.30;6.60;;;3.70;99.90;;;;;;5054699;28;20413;-66
2023/01/27 05:55:11;;;;;;;9.85;7.00;;;3.70;99.90;;;;;;5054432;28;20425;-67
2023/01/27 05:57:38;;;;;;;10.35;7.50;;;3.80;99.90;;;;;;5054053;28;20428;-67
2023/01/27 06:00:06;;;;;;;9.65;7.13;;;3.80;99.90;;;;;;5054495;28;20417;-68
2023/01/27 06:02:32;;;;;;;9.88;6.82;;;3.80;99.90;;;;;;5054817;28;20784;-67
2023/01/27 06:04:59;;;;;;;9.80;6.50;;;3.80;99.90;;;;;;5054473;28;20409;-68
2023/01/27 06:07:27;;;;;;;8.80;7.20;;;3.80;99.90;;;;;;5053738;28;20766;-69
2023/01/27 06:09:54;;;;;;;9.35;7.45;;;3.80;99.90;;;;;;5054345;28;20433;-67
2023/01/27 06:12:21;;;;;;;9.43;7.13;;;3.80;99.90;;;;;;5053914;28;20405;-67
2023/01/27 06:14:47;;;;;;;8.60;6.65;;;3.80;99.90;;;;;;5054067;28;20409;-68
2023/01/27 06:17:14;;;;;;;8.98;6.25;;;3.80;99.90;;;;;;5054351;28;20416;-69
2023/01/27 06:19:41;;;;;;;7.38;6.55;;;3.80;99.90;;;;;;5054552;28;20413;-69
2023/01/27 06:22:08;;;;;;;8.60;6.15;;;3.80;99.90;;;;;;5053947;28;20417;-67
2023/01/27 06:24:36;;;;;;;8.02;6.10;;;3.80;99.90;;;;;;5053362;28;20470;-68
2023/01/27 06:27:03;;;;;;;7.60;6.20;;;3.80;99.90;;;;;;5053886;28;20413;-68
2023/01/27 06:29:31;;;;;;;7.35;5.75;;;3.80;99.90;;;;;;5053974;28;20437;-68
2023/01/27 06:31:57;;;;;;;6.75;5.75;;;3.80;99.90;;;;;;5053659;28;20421;-68
2023/01/27 06:34:24;;;;;;;8.20;6.17;;;3.80;99.90;;;;;;5052167;28;20865;-67
2023/01/27 06:36:53;;;;;;;7.93;6.18;;;3.80;99.90;;;;;;5053096;28;20425;-67
2023/01/27 06:39:19;;;;;;;8.07;6.47;;;3.80;99.90;;;;;;5049073;28;20429;-67
2023/01/27 06:41:49;;;;;;;7.50;5.85;;;3.80;99.90;;;;;;5063718;28;20417;-68
2023/01/27 06:44:16;;;;;;;6.93;5.63;;;3.80;99.90;;;;;;5051857;28;20483;-68
2023/01/27 06:46:43;;;;;;;5.10;4.40;;;3.80;99.90;;;;;;5052961;28;20409;-68
2023/01/27 06:49:10;;;;;;;5.20;4.40;;;3.80;99.90;;;;;;5052112;28;20425;-69
2023/01/27 06:51:36;;;;;;;6.55;4.75;;;3.80;99.90;;;;;;5052875;28;20434;-68
2023/01/27 06:54:04;;;;;;;6.70;4.63;;;3.80;99.90;;;;;;5051950;28;20429;-68
2023/01/27 06:56:31;;;;;;;6.50;4.90;;;3.80;99.90;;;;;;5051714;28;20420;-69
2023/01/27 06:58:59;;;;;;;6.60;5.20;;;3.80;99.90;;;;;;5046596;28;20448;-67
2023/01/27 07:01:26;;;;;;;7.43;5.40;;;3.80;99.90;;;;;;5049383;28;20435;-68
2023/01/27 07:03:53;;;;;;;7.32;5.55;;;3.90;99.90;;;;;;5048947;28;20465;-67
2023/01/27 07:06:20;;;;;;;8.70;5.68;;;3.90;99.90;;;;;;5051853;28;20428;-68
2023/01/27 07:08:49;;;;;;;5.40;4.57;;;3.90;99.90;;;;;;5043745;28;20489;-66
2023/01/27 07:11:16;;;;;;;6.68;4.65;;;3.90;99.90;;;;;;5033368;28;20431;-67
2023/01/27 07:13:42;;;;;;;4.90;4.38;;;3.90;99.90;;;;;;5048037;28;20429;-68
2023/01/27 07:16:10;;;;;;;6.10;4.50;;;3.90;99.90;;;;;;5048271;28;20465;-68
2023/01/27 07:18:37;;;;;;;5.82;4.18;;;3.90;99.90;;;;;;5052989;28;20428;-67
2023/01/27 07:21:05;;;;;;;4.20;3.73;;;3.90;99.90;;;;;;5046618;28;20430;-68
2023/01/27 07:23:31;;;;;;;4.30;3.83;;;3.90;99.90;;;;;;5046014;28;20433;-67
2023/01/27 07:26:01;;;;;;;3.90;3.50;;;3.90;99.90;;;;;;5043545;28;20459;-69
2023/01/27 07:28:28;;;;;;;4.35;3.95;;;3.90;99.90;;;;;;5045553;28;20451;-68
2023/01/27 07:30:55;;;;;;;4.60;3.80;;;3.90;99.90;;;;;;5044837;28;20487;-68
2023/01/27 07:33:23;;;;;;;4.32;3.80;;;3.90;99.90;;;;;;5052058;28;20881;-68
2023/01/27 07:35:50;;;;;;;4.25;3.85;;;3.80;99.90;;;;;;5049887;28;20456;-68
2023/01/27 07:38:16;;;;;;;4.80;4.30;;;3.80;99.90;;;;;;5053470;28;20412;-68
2023/01/27 07:40:43;;;;;;;4.60;3.70;;;3.80;99.90;;;;;;5052379;28;20431;-68
2023/01/27 07:43:10;;;;;;;4.35;3.95;;;3.80;99.90;;;;;;5051564;28;20429;-68
2023/01/27 07:45:37;;;;;;;4.18;3.78;;;3.80;99.90;;;;;;5051168;28;20433;-68
2023/01/27 07:48:05;;;;;;;4.32;3.50;;;3.80;99.90;;;;;;5050875;28;20433;-70
2023/01/27 07:50:34;;;;;;;3.97;3.50;;;3.80;99.90;;;;;;5047031;28;20437;-69
2023/01/27 07:53:02;;;;;;;4.60;3.50;;;3.80;99.90;;;;;;5051929;28;20520;-69
2023/01/27 07:55:29;;;;;;;4.70;4.20;;;3.80;99.90;;;;;;5052110;28;20424;-70
2023/01/27 07:57:56;;;;;;;4.80;4.30;;;3.80;99.90;;;;;;5052300;28;20439;-70
2023/01/27 08:00:23;;;;;;;4.07;3.30;;;3.80;99.90;;;;;;5051819;28;20433;-69
2023/01/27 08:02:51;;;;;;;5.40;3.50;;;3.80;99.90;;;;;;5052215;28;20420;-69
2023/01/27 08:05:18;;;;;;;4.43;3.90;;;3.80;99.90;;;;;;5052285;28;20471;-70
2023/01/27 08:07:46;;;;;;;5.13;3.90;;;3.80;99.90;;;;;;5049881;28;20845;-69
2023/01/27 08:10:13;;;;;;;6.28;4.00;;;3.80;99.90;;;;;;5052156;28;20424;-69
2023/01/27 08:12:40;;;;;;;6.55;3.70;;;3.80;99.90;;;;;;5048949;28;20429;-68
2023/01/27 08:15:08;;;;;;;6.40;3.70;;;3.90;99.90;;;;;;5051656;28;20773;-69
2023/01/27 08:17:35;;;;;;;4.10;3.60;;;3.90;99.90;;;;;;5050708;28;20444;-69
2023/01/27 08:20:02;;;;;;;5.47;3.53;;;3.90;99.90;;;;;;5048918;28;20433;-68
2023/01/27 08:22:29;;;;;;;3.40;3.00;;;3.90;99.90;;;;;;5031851;28;20410;-68
2023/01/27 08:24:57;;;;;;;3.30;2.97;;;3.90;99.90;;;;;;5031886;28;20423;-69
2023/01/27 08:27:24;;;;;;;5.03;3.00;;;4.00;99.90;;;;;;5031979;28;20426;-69
2023/01/27 08:29:51;;;;;;;3.80;3.00;;;4.00;99.90;;;;;;5032501;28;20437;-68
2023/01/27 08:32:17;;;;;;;4.22;2.60;;;4.00;99.90;;;;;;5032049;28;20419;-68
2023/01/27 08:34:44;;;;;;;3.00;2.40;;;4.00;99.90;;;;;;5032786;28;20415;-68
2023/01/27 08:37:11;;;;;;;2.95;2.50;;;4.00;99.90;;;;;;5033105;28;20425;-69
2023/01/27 08:39:38;;;;;;;2.60;2.10;;;4.00;99.90;;;;;;5031987;28;20491;-68
2023/01/27 08:42:06;;;;;;;3.00;2.10;;;4.00;99.90;;;;;;5032080;28;20434;-69
2023/01/27 08:44:33;;;;;;;3.20;2.20;;;4.00;99.90;;;;;;5032909;28;20430;-68
2023/01/27 08:47:00;;;;;;;2.35;2.00;;;4.00;99.90;;;;;;5032686;28;20782;-68
2023/01/27 08:49:27;;;;;;;3.37;2.27;;;4.00;99.90;;;;;;5032325;28;20835;-66
2023/01/27 08:51:54;;;;;;;3.67;2.30;;;3.90;99.90;;;;;;5032286;28;20437;-65
2023/01/27 08:54:20;;;;;;;2.85;2.20;;;3.90;99.90;;;;;;5031675;28;20415;-65
2023/01/27 08:56:47;;;;;;;2.75;2.20;;;3.90;99.90;;;;;;5033880;28;20415;-64
2023/01/27 08:59:16;;;;;;;2.40;2.20;;;3.90;99.90;;;;;;5036052;28;20419;-67
2023/01/27 09:01:42;;;;;;;3.35;2.20;;;3.90;99.90;;;;;;5036767;28;20415;-69
2023/01/27 09:04:10;;;;;;;2.20;1.83;;;3.90;99.90;;;;;;5036007;28;20415;-68
2023/01/27 09:06:37;;;;;;;2.63;1.53;;;3.90;99.90;;;;;;5037532;28;20411;-65
2023/01/27 09:09:10;;;;;;;2.50;1.70;;;3.90;99.90;;;;;;5041073;28;20413;-64
2023/01/27 09:11:37;;;;;;;2.10;1.70;;;4.00;99.90;;;;;;5036641;28;20427;-64
2023/01/27 09:14:04;;;;;;;2.55;1.30;;;4.00;99.90;;;;;;5036380;28;20874;-63
2023/01/27 09:16:33;;;;;;;2.38;1.30;;;4.00;99.90;;;;;;5036997;28;20502;-64
2023/01/27 09:18:59;;;;;;;5.05;1.80;;;4.00;99.90;;;;;;5036404;28;20415;-62
2023/01/27 09:21:26;;;;;;;1.80;1.40;;;4.00;99.90;;;;;;5035810;28;20455;-62
2023/01/27 09:23:53;;;;;;;1.90;1.30;;;4.00;99.90;;;;;;5035279;28;20462;-62
2023/01/27 09:26:20;;;;;;;3.00;1.40;;;4.00;99.90;;;;;;5035474;28;20505;-63
2023/01/27 09:28:47;;;;;;;3.22;1.40;;;4.00;99.90;;;;;;5035911;28;20429;-63
2023/01/27 09:31:14;;;;;;;2.60;1.25;;;4.10;99.90;;;;;;5035093;28;20430;-62
2023/01/27 09:33:42;;;;;;;1.90;1.30;;;4.20;99.90;;;;;;5035022;28;20498;-63
2023/01/27 09:36:14;;;;;;;1.40;1.00;;;4.20;99.90;;;;;;5034728;28;20783;-64
2023/01/27 09:38:46;;;;;;;2.10;1.30;;;4.20;99.90;;;;;;5034964;28;20415;-63
2023/01/27 09:41:42;;;;;;;1.80;1.30;;;4.20;99.90;;;;;;5034382;28;20858;-63
2023/01/27 09:45:03;;;;;;;2.38;1.40;;;4.20;99.90;;;;;;5034751;28;20434;-64
2023/01/27 09:47:58;;;;;;;2.28;1.48;;;4.10;99.90;;;;;;4966457;28;20787;-63
2023/01/27 09:50:43;;;;;;;3.55;1.40;;;4.10;99.90;;;;;;4956604;28;20428;-63
2023/01/27 09:53:44;;;;;;;2.90;1.50;;;4.20;99.90;;;;;;5018665;28;20837;-63
2023/01/27 09:56:15;;;;;;;2.07;1.70;;;4.20;99.90;;;;;;5034192;28;20419;-63
2023/01/27 09:58:59;;;;;;;2.30;1.50;;;4.20;99.90;;;;;;5033665;28;20415;-63
2023/01/27 10:01:33;;;;;;;2.45;1.67;;;4.30;99.90;;;;;;5034564;28;20411;-64
2023/01/27 10:04:17;;;;;;;1.70;1.60;;;4.30;99.90;;;;;;5034087;28;20426;-65
2023/01/27 10:07:06;;;;;;;1.83;1.60;;;4.30;99.90;;;;;;5034228;28;20418;-63
2023/01/27 10:09:46;;;;;;;2.10;1.50;;;4.40;99.90;;;;;;5034370;28;20417;-64
2023/01/27 10:12:29;;;;;;;2.10;1.50;;;4.40;99.90;;;;;;5034352;28;20434;-65
2023/01/27 10:15:06;;;;;;;1.95;1.60;;;4.40;99.90;;;;;;5034198;28;20973;-64
2023/01/27 10:17:44;;;;;;;2.00;1.50;;;4.40;99.90;;;;;;5035034;28;20411;-64
2023/01/27 10:20:27;;;;;;;3.10;1.60;;;4.50;99.90;;;;;;5034839;28;20411;-65
2023/01/27 10:23:13;;;;;;;3.20;1.20;;;4.50;99.90;;;;;;5036243;28;20477;-65
2023/01/27 10:25:56;;;;;;;1.95;1.30;;;4.60;99.90;;;;;;5034366;28;20879;-63
2023/01/27 10:28:25;;;;;;;3.97;1.10;;;4.50;99.90;;;;;;5034961;28;20415;-64
2023/01/27 10:30:59;;;;;;;2.20;1.10;;;4.50;99.90;;;;;;5033935;28;20434;-64
2023/01/27 10:33:43;;;;;;;1.70;1.30;;;4.50;99.90;;;;;;5034943;28;20427;-64
2023/01/27 10:36:19;;;;;;;2.00;1.20;;;4.40;99.90;;;;;;5033898;28;20415;-64
2023/01/27 10:41:45;;;;;;;3.88;1.50;;;4.40;99.90;;;;;;5052015;28;20499;-63
2023/01/27 10:44:34;;;;;;;2.40;1.30;;;4.40;99.90;;;;;;5053488;28;20413;-62
2023/01/27 10:47:10;;;;;;;2.50;1.70;;;4.40;99.90;;;;;;5054492;28;20422;-63
2023/01/27 10:49:40;;;;;;;2.85;1.67;;;4.40;99.90;;;;;;5059945;28;20408;-62
2023/01/27 10:52:13;;;;;;;3.50;1.60;;;4.40;99.90;;;;;;5073774;28;20787;-63
2023/01/27 10:54:44;;;;;;;3.25;1.40;;;4.40;99.90;;;;;;5073271;28;20416;-63
2023/01/27 10:57:16;;;;;;;5.20;2.00;;;4.40;99.90;;;;;;5073153;28;20412;-63
2023/01/27 10:59:48;;;;;;;1.55;1.13;;;4.40;99.90;;;;;;5072984;28;20407;-64
2023/01/27 11:02:23;;;;;;;2.70;1.38;;;4.40;99.90;;;;;;5073318;28;20415;-63
2023/01/27 11:04:54;;;;;;;3.72;1.60;;;4.30;99.90;;;;;;5073167;28;20469;-63
2023/01/27 11:07:22;;;;;;;2.33;1.60;;;4.30;99.90;;;;;;5074185;28;20412;-65
2023/01/27 11:09:55;;;;;;;2.63;1.40;;;4.40;99.90;;;;;;5073525;28;20418;-63
2023/01/27 11:12:31;;;;;;;2.47;1.77;;;4.40;99.90;;;;;;5073341;28;20419;-63
2023/01/27 11:15:01;;;;;;;2.45;1.23;;;4.40;99.90;;;;;;5072496;28;20423;-63
2023/01/27 11:17:31;;;;;;;2.90;1.30;;;4.40;99.90;;;;;;5072395;28;20474;-64
2023/01/27 11:20:05;;;;;;;2.95;1.10;;;4.40;99.90;;;;;;5071771;28;20415;-63
2023/01/27 11:22:37;;;;;;;2.00;1.20;;;4.40;99.90;;;;;;5072638;28;20415;-64
2023/01/27 11:25:16;;;;;;;2.63;1.20;;;4.40;99.90;;;;;;5073090;28;20412;-62
2023/01/27 11:28:06;;;;;;;1.40;1.00;;;4.30;99.90;;;;;;5073122;28;20411;-63
2023/01/27 11:30:39;;;;;;;2.75;1.30;;;4.40;99.90;;;;;;5072976;28;20414;-63
2023/01/27 11:33:17;;;;;;;1.90;1.30;;;4.40;99.90;;;;;;5072964;28;20424;-63
2023/01/27 11:35:44;;;;;;;2.17;1.10;;;4.40;99.90;;;;;;5073204;28;20416;-62
2023/01/27 11:38:16;;;;;;;3.33;1.30;;;4.50;99.90;;;;;;5073325;28;20791;-63
2023/01/27 11:40:45;;;;;;;3.00;2.50;;;4.50;99.90;;;;;;5072220;28;20426;-61
2023/01/27 11:43:17;;;;;;;2.60;1.20;;;4.40;99.90;;;;;;5073949;28;20906;-61
2023/01/27 11:45:46;;;;;;;3.08;1.42;;;4.40;99.90;;;;;;5074388;28;20418;-63
2023/01/27 11:48:16;;;;;;;1.20;1.00;;;4.40;99.90;;;;;;5075423;28;20420;-63
2023/01/27 11:50:44;;;;;;;2.20;1.20;;;4.30;99.90;;;;;;5075233;28;20396;-62
2023/01/27 11:53:17;;;;;;;2.53;1.30;;;4.30;99.90;;;;;;5073216;28;20434;-59
2023/01/27 11:55:48;;;;;;;2.40;1.10;;;4.30;99.90;;;;;;5073076;28;20494;-63
2023/01/27 11:58:23;;;;;;;2.90;1.38;;;4.20;99.90;;;;;;5072255;28;20529;-62
2023/01/27 12:00:56;;;;;;;2.30;1.30;;;4.30;99.90;;;;;;5071900;28;20499;-63
2023/01/27 12:03:30;;;;;;;2.00;1.40;;;4.40;99.90;;;;;;5072129;28;20776;-64
2023/01/27 12:06:02;;;;;;;1.13;0.90;;;4.40;99.90;;;;;;5072104;28;20416;-64
2023/01/27 12:08:42;;;;;;;2.40;1.05;;;4.50;99.90;;;;;;5071594;28;20416;-64
2023/01/27 12:11:24;;;;;;;1.70;1.20;;;4.60;99.90;;;;;;5071787;28;20473;-61
2023/01/27 12:13:54;;;;;;;2.28;1.05;;;4.60;99.90;;;;;;5072202;28;20943;-64
2023/01/27 12:16:24;;;;;;;2.42;1.00;;;4.60;99.90;;;;;;5071981;28;20494;-65
2023/01/27 12:18:56;;;;;;;2.15;1.10;;;4.60;99.90;;;;;;5072485;28;20768;-66
2023/01/27 12:21:35;;;;;;;1.80;1.30;;;4.60;99.90;;;;;;5071772;28;20795;-67
2023/01/27 12:24:02;;;;;;;1.80;0.90;;;4.60;99.90;;;;;;5072073;28;20871;-63
2023/01/27 12:26:36;;;;;;;2.40;1.00;;;4.60;99.90;;;;;;5072067;28;20499;-64
2023/01/27 12:29:07;;;;;;;2.90;1.00;;;4.70;99.90;;;;;;5072703;28;20404;-64
2023/01/27 12:31:46;;;;;;;1.50;0.83;;;4.70;99.90;;;;;;5073706;28;20763;-64
2023/01/27 12:34:27;;;;;;;2.95;1.17;;;4.80;99.90;;;;;;5075196;28;20415;-63
2023/01/27 12:36:55;;;;;;;2.50;1.10;;;4.80;99.90;;;;;;5075213;28;20989;-63
2023/01/27 12:39:32;;;;;;;1.90;0.90;;;4.80;99.90;;;;;;5075088;28;20412;-65
2023/01/27 12:41:59;;;;;;;1.50;1.10;;;4.70;99.90;;;;;;5075440;28;20432;-65
2023/01/27 12:44:41;;;;;;;2.50;1.00;;;4.70;99.90;;;;;;5075446;28;20465;-63
2023/01/27 12:47:23;;;;;;;2.03;1.00;;;4.60;99.90;;;;;;5075062;28;20421;-65
2023/01/27 12:49:50;;;;;;;3.20;1.00;;;4.60;99.90;;;;;;5074863;28;20934;-67
2023/01/27 12:52:19;;;;;;;1.75;0.90;;;4.60;99.90;;;;;;5075529;28;20427;-63
2023/01/27 12:54:46;;;;;;;3.00;1.17;;;4.60;99.90;;;;;;5074938;28;20779;-64
2023/01/27 12:57:17;;;;;;;3.70;1.20;;;4.70;99.90;;;;;;5074995;28;20411;-64
2023/01/27 12:59:49;;;;;;;2.70;1.30;;;4.70;99.90;;;;;;5075048;28;20415;-64
2023/01/27 13:02:19;;;;;;;3.30;1.40;;;4.70;99.90;;;;;;5076461;28;20404;-64
2023/01/27 13:04:51;;;;;;;3.10;1.38;;;4.70;99.90;;;;;;5075789;28;20438;-67
2023/01/27 13:07:23;;;;;;;3.10;1.50;;;4.70;99.90;;;;;;5075198;28;20483;-64
2023/01/27 13:09:53;;;;;;;2.73;1.60;;;4.80;99.90;;;;;;5075296;28;20457;-64
2023/01/27 13:12:22;;;;;;;2.17;1.55;;;4.80;99.90;;;;;;5075117;28;20428;-64
2023/01/27 13:14:53;;;;;;;3.38;1.92;;;4.80;99.90;;;;;;5075322;28;20416;-64
2023/01/27 13:17:29;;;;;;;2.92;1.80;;;4.80;99.90;;;;;;5074261;28;20412;-63
2023/01/27 13:20:01;;;;;;;4.40;2.00;;;4.80;99.90;;;;;;5074560;28;20851;-64
2023/01/27 13:22:30;;;;;;;2.70;2.28;;;4.70;99.90;;;;;;5074445;28;20414;-61
2023/01/27 13:25:02;;;;;;;2.92;2.00;;;4.70;99.90;;;;;;5074600;28;20412;-65
2023/01/27 13:27:37;;;;;;;4.22;1.90;;;4.60;99.90;;;;;;5074962;28;20426;-66
2023/01/27 13:30:16;;;;;;;2.80;2.00;;;4.60;99.90;;;;;;5074896;28;20412;-64
2023/01/27 13:32:47;;;;;;;2.67;1.80;;;4.50;99.90;;;;;;5074449;28;20509;-64
2023/01/27 13:35:21;;;;;;;4.00;1.70;;;4.50;99.90;;;;;;5074471;28;20412;-63
2023/01/27 13:37:56;;;;;;;3.22;1.70;;;4.40;99.90;;;;;;5074421;28;20415;-62
2023/01/27 13:40:29;;;;;;;3.05;1.30;;;4.40;99.90;;;;;;5074022;28;20744;-63
2023/01/27 13:43:03;;;;;;;2.13;1.30;;;4.40;99.90;;;;;;5073847;28;20412;-65
2023/01/27 13:45:39;;;;;;;3.35;1.80;;;4.30;99.90;;;;;;5074502;28;20505;-64
2023/01/27 13:48:16;;;;;;;2.88;1.30;;;4.30;99.90;;;;;;5074588;28;20443;-68